sensor_id;sensor_type;location;lat;lon;timestamp;P1;durP1;ratioP1;P2;durP2;ratioP2
40807;SDS011;26523;52.504;13.498;2022-08-04T00:00:07;8.43;;;4.10;;
40807;SDS011;26523;52.504;13.498;2022-08-04T00:02:45;8.57;;;3.33;;
40807;SDS011;26523;52.504;13.498;2022-08-04T00:10:52;7.95;;;2.95;;
40807;SDS011;26523;52.504;13.498;2022-08-04T00:13:23;6.90;;;2.83;;
40807;SDS011;26523;52.504;13.498;2022-08-04T00:15:50;6.95;;;3.65;;
40807;SDS011;26523;52.504;13.498;2022-08-04T00:18:17;5.20;;;3.13;;
40807;SDS011;26523;52.504;13.498;2022-08-04T00:20:50;6.93;;;2.85;;
40807;SDS011;26523;52.504;13.498;2022-08-04T00:25:51;5.68;;;3.30;;
40807;SDS011;26523;52.504;13.498;2022-08-04T00:28:17;6.05;;;2.92;;
40807;SDS011;26523;52.504;13.498;2022-08-04T00:30:43;7.45;;;3.47;;
40807;SDS011;26523;52.504;13.498;2022-08-04T00:33:09;6.70;;;3.13;;
40807;SDS011;26523;52.504;13.498;2022-08-04T00:35:37;6.40;;;2.97;;
40807;SDS011;26523;52.504;13.498;2022-08-04T00:38:03;7.07;;;3.33;;
40807;SDS011;26523;52.504;13.498;2022-08-04T00:43:31;7.07;;;3.40;;
40807;SDS011;26523;52.504;13.498;2022-08-04T00:46:13;4.68;;;2.95;;
40807;SDS011;26523;52.504;13.498;2022-08-04T00:49:14;7.50;;;3.70;;
40807;SDS011;26523;52.504;13.498;2022-08-04T00:57:47;7.03;;;3.53;;
40807;SDS011;26523;52.504;13.498;2022-08-04T01:00:27;7.72;;;3.25;;
40807;SDS011;26523;52.504;13.498;2022-08-04T01:03:08;6.00;;;3.20;;
40807;SDS011;26523;52.504;13.498;2022-08-04T01:05:54;8.50;;;3.70;;
40807;SDS011;26523;52.504;13.498;2022-08-04T01:19:38;10.80;;;3.65;;
40807;SDS011;26523;52.504;13.498;2022-08-04T01:25:20;5.53;;;2.83;;
40807;SDS011;26523;52.504;13.498;2022-08-04T01:30:49;4.63;;;2.85;;
40807;SDS011;26523;52.504;13.498;2022-08-04T01:33:20;5.45;;;2.25;;
40807;SDS011;26523;52.504;13.498;2022-08-04T01:35:55;6.05;;;2.63;;
40807;SDS011;26523;52.504;13.498;2022-08-04T01:38:35;5.63;;;3.08;;
40807;SDS011;26523;52.504;13.498;2022-08-04T01:41:07;6.00;;;3.13;;
40807;SDS011;26523;52.504;13.498;2022-08-04T01:46:09;5.10;;;2.90;;
40807;SDS011;26523;52.504;13.498;2022-08-04T01:48:37;4.55;;;2.60;;
40807;SDS011;26523;52.504;13.498;2022-08-04T01:51:04;5.63;;;2.70;;
40807;SDS011;26523;52.504;13.498;2022-08-04T01:53:32;4.72;;;2.63;;
40807;SDS011;26523;52.504;13.498;2022-08-04T01:56:03;8.05;;;2.95;;
40807;SDS011;26523;52.504;13.498;2022-08-04T01:58:31;5.15;;;2.80;;
40807;SDS011;26523;52.504;13.498;2022-08-04T02:01:04;4.90;;;2.67;;
40807;SDS011;26523;52.504;13.498;2022-08-04T02:03:32;6.03;;;2.55;;
40807;SDS011;26523;52.504;13.498;2022-08-04T02:08:54;5.75;;;2.60;;
40807;SDS011;26523;52.504;13.498;2022-08-04T02:11:21;6.10;;;2.33;;
40807;SDS011;26523;52.504;13.498;2022-08-04T02:17:01;4.68;;;2.92;;
40807;SDS011;26523;52.504;13.498;2022-08-04T02:19:39;6.80;;;2.75;;
40807;SDS011;26523;52.504;13.498;2022-08-04T02:22:09;6.57;;;3.15;;
40807;SDS011;26523;52.504;13.498;2022-08-04T02:24:55;5.28;;;2.88;;
40807;SDS011;26523;52.504;13.498;2022-08-04T02:27:28;6.40;;;2.95;;
40807;SDS011;26523;52.504;13.498;2022-08-04T02:29:58;8.60;;;2.70;;
40807;SDS011;26523;52.504;13.498;2022-08-04T02:32:29;4.93;;;3.10;;
40807;SDS011;26523;52.504;13.498;2022-08-04T02:35:04;4.88;;;2.83;;
40807;SDS011;26523;52.504;13.498;2022-08-04T02:37:32;5.60;;;3.17;;
40807;SDS011;26523;52.504;13.498;2022-08-04T02:40:00;5.03;;;2.70;;
40807;SDS011;26523;52.504;13.498;2022-08-04T02:42:27;5.20;;;3.03;;
40807;SDS011;26523;52.504;13.498;2022-08-04T02:44:55;5.88;;;2.50;;
40807;SDS011;26523;52.504;13.498;2022-08-04T02:47:23;6.50;;;2.90;;
40807;SDS011;26523;52.504;13.498;2022-08-04T02:49:51;5.30;;;2.72;;
40807;SDS011;26523;52.504;13.498;2022-08-04T02:52:17;5.80;;;2.55;;
40807;SDS011;26523;52.504;13.498;2022-08-04T02:54:44;7.97;;;2.95;;
40807;SDS011;26523;52.504;13.498;2022-08-04T02:57:13;5.75;;;2.50;;
40807;SDS011;26523;52.504;13.498;2022-08-04T03:05:02;5.72;;;2.58;;
40807;SDS011;26523;52.504;13.498;2022-08-04T03:22:22;4.80;;;2.92;;
40807;SDS011;26523;52.504;13.498;2022-08-04T03:24:59;5.32;;;3.38;;
40807;SDS011;26523;52.504;13.498;2022-08-04T03:31:05;5.20;;;3.08;;
40807;SDS011;26523;52.504;13.498;2022-08-04T03:34:02;5.40;;;3.25;;
40807;SDS011;26523;52.504;13.498;2022-08-04T03:37:02;6.10;;;3.15;;
40807;SDS011;26523;52.504;13.498;2022-08-04T03:39:50;6.28;;;3.10;;
40807;SDS011;26523;52.504;13.498;2022-08-04T03:50:51;9.85;;;3.20;;
40807;SDS011;26523;52.504;13.498;2022-08-04T04:08:08;6.30;;;3.53;;
40807;SDS011;26523;52.504;13.498;2022-08-04T04:13:49;5.78;;;3.30;;
40807;SDS011;26523;52.504;13.498;2022-08-04T04:21:57;8.27;;;3.40;;
40807;SDS011;26523;52.504;13.498;2022-08-04T04:24:46;9.45;;;3.60;;
40807;SDS011;26523;52.504;13.498;2022-08-04T04:30:04;6.40;;;3.33;;
40807;SDS011;26523;52.504;13.498;2022-08-04T04:33:00;7.07;;;4.20;;
40807;SDS011;26523;52.504;13.498;2022-08-04T04:35:52;6.63;;;3.80;;
40807;SDS011;26523;52.504;13.498;2022-08-04T04:52:48;7.68;;;3.70;;
40807;SDS011;26523;52.504;13.498;2022-08-04T04:55:26;7.32;;;3.80;;
40807;SDS011;26523;52.504;13.498;2022-08-04T04:57:56;5.82;;;3.83;;
40807;SDS011;26523;52.504;13.498;2022-08-04T05:00:25;6.55;;;4.22;;
40807;SDS011;26523;52.504;13.498;2022-08-04T05:06:34;5.30;;;3.75;;
40807;SDS011;26523;52.504;13.498;2022-08-04T05:14:01;9.15;;;4.47;;
40807;SDS011;26523;52.504;13.498;2022-08-04T05:16:43;6.18;;;4.20;;
40807;SDS011;26523;52.504;13.498;2022-08-04T05:22:03;7.25;;;3.45;;
40807;SDS011;26523;52.504;13.498;2022-08-04T05:27:02;6.15;;;4.20;;
40807;SDS011;26523;52.504;13.498;2022-08-04T05:29:43;7.10;;;4.40;;
40807;SDS011;26523;52.504;13.498;2022-08-04T05:32:15;9.48;;;4.60;;
40807;SDS011;26523;52.504;13.498;2022-08-04T05:34:48;5.88;;;4.00;;
40807;SDS011;26523;52.504;13.498;2022-08-04T05:37:20;7.43;;;4.03;;
40807;SDS011;26523;52.504;13.498;2022-08-04T05:39:58;5.28;;;3.42;;
40807;SDS011;26523;52.504;13.498;2022-08-04T05:42:29;5.53;;;4.10;;
40807;SDS011;26523;52.504;13.498;2022-08-04T05:44:56;6.68;;;4.00;;
40807;SDS011;26523;52.504;13.498;2022-08-04T05:47:23;7.72;;;4.68;;
40807;SDS011;26523;52.504;13.498;2022-08-04T05:49:49;6.65;;;3.95;;
40807;SDS011;26523;52.504;13.498;2022-08-04T05:52:15;8.57;;;4.13;;
40807;SDS011;26523;52.504;13.498;2022-08-04T05:54:42;10.13;;;4.35;;
40807;SDS011;26523;52.504;13.498;2022-08-04T05:57:09;6.72;;;3.92;;
40807;SDS011;26523;52.504;13.498;2022-08-04T05:59:39;5.97;;;4.22;;
40807;SDS011;26523;52.504;13.498;2022-08-04T06:02:06;5.00;;;3.83;;
40807;SDS011;26523;52.504;13.498;2022-08-04T06:04:34;6.57;;;3.75;;
40807;SDS011;26523;52.504;13.498;2022-08-04T06:07:03;6.50;;;3.55;;
40807;SDS011;26523;52.504;13.498;2022-08-04T06:09:30;8.90;;;3.78;;
40807;SDS011;26523;52.504;13.498;2022-08-04T06:11:59;4.85;;;3.28;;
40807;SDS011;26523;52.504;13.498;2022-08-04T06:14:26;8.25;;;3.42;;
40807;SDS011;26523;52.504;13.498;2022-08-04T06:17:04;6.18;;;3.30;;
40807;SDS011;26523;52.504;13.498;2022-08-04T06:19:32;4.88;;;3.20;;
40807;SDS011;26523;52.504;13.498;2022-08-04T06:22:00;4.65;;;3.10;;
40807;SDS011;26523;52.504;13.498;2022-08-04T06:24:29;4.95;;;3.42;;
40807;SDS011;26523;52.504;13.498;2022-08-04T06:26:56;5.97;;;3.35;;
40807;SDS011;26523;52.504;13.498;2022-08-04T06:29:22;6.20;;;2.67;;
40807;SDS011;26523;52.504;13.498;2022-08-04T06:32:00;7.43;;;2.97;;
40807;SDS011;26523;52.504;13.498;2022-08-04T06:34:37;4.10;;;2.45;;
40807;SDS011;26523;52.504;13.498;2022-08-04T06:37:04;6.53;;;2.95;;
40807;SDS011;26523;52.504;13.498;2022-08-04T06:39:32;6.28;;;3.03;;
40807;SDS011;26523;52.504;13.498;2022-08-04T06:41:59;4.97;;;2.65;;
40807;SDS011;26523;52.504;13.498;2022-08-04T06:44:25;6.13;;;2.78;;
40807;SDS011;26523;52.504;13.498;2022-08-04T06:46:53;3.70;;;2.70;;
40807;SDS011;26523;52.504;13.498;2022-08-04T06:49:20;5.97;;;3.08;;
40807;SDS011;26523;52.504;13.498;2022-08-04T06:51:46;4.65;;;2.60;;
40807;SDS011;26523;52.504;13.498;2022-08-04T06:54:13;5.45;;;3.13;;
40807;SDS011;26523;52.504;13.498;2022-08-04T06:56:39;4.20;;;2.30;;
40807;SDS011;26523;52.504;13.498;2022-08-04T06:59:08;8.13;;;3.28;;
40807;SDS011;26523;52.504;13.498;2022-08-04T07:01:36;3.20;;;2.55;;
40807;SDS011;26523;52.504;13.498;2022-08-04T07:04:02;3.50;;;2.55;;
40807;SDS011;26523;52.504;13.498;2022-08-04T07:06:29;4.55;;;2.65;;
40807;SDS011;26523;52.504;13.498;2022-08-04T07:08:55;6.00;;;2.80;;
40807;SDS011;26523;52.504;13.498;2022-08-04T07:11:21;4.57;;;2.15;;
40807;SDS011;26523;52.504;13.498;2022-08-04T07:13:47;7.70;;;2.95;;
40807;SDS011;26523;52.504;13.498;2022-08-04T07:16:14;5.78;;;2.05;;
40807;SDS011;26523;52.504;13.498;2022-08-04T07:18:41;3.95;;;2.38;;
40807;SDS011;26523;52.504;13.498;2022-08-04T07:21:07;3.97;;;2.72;;
40807;SDS011;26523;52.504;13.498;2022-08-04T07:23:32;5.95;;;2.72;;
40807;SDS011;26523;52.504;13.498;2022-08-04T07:25:58;6.07;;;3.40;;
40807;SDS011;26523;52.504;13.498;2022-08-04T07:28:25;6.13;;;2.67;;
40807;SDS011;26523;52.504;13.498;2022-08-04T07:30:52;8.60;;;3.95;;
40807;SDS011;26523;52.504;13.498;2022-08-04T07:33:19;6.65;;;3.53;;
40807;SDS011;26523;52.504;13.498;2022-08-04T07:35:46;8.95;;;2.90;;
40807;SDS011;26523;52.504;13.498;2022-08-04T07:38:14;4.60;;;2.78;;
40807;SDS011;26523;52.504;13.498;2022-08-04T07:40:40;7.20;;;2.63;;
40807;SDS011;26523;52.504;13.498;2022-08-04T07:43:06;5.50;;;2.45;;
40807;SDS011;26523;52.504;13.498;2022-08-04T07:45:32;4.38;;;2.33;;
40807;SDS011;26523;52.504;13.498;2022-08-04T07:47:59;3.85;;;2.13;;
40807;SDS011;26523;52.504;13.498;2022-08-04T07:50:25;3.80;;;2.40;;
40807;SDS011;26523;52.504;13.498;2022-08-04T07:52:51;6.03;;;2.63;;
40807;SDS011;26523;52.504;13.498;2022-08-04T07:55:18;5.00;;;2.25;;
40807;SDS011;26523;52.504;13.498;2022-08-04T07:57:44;4.13;;;2.00;;
40807;SDS011;26523;52.504;13.498;2022-08-04T08:00:10;4.30;;;2.15;;
40807;SDS011;26523;52.504;13.498;2022-08-04T08:02:38;5.78;;;2.13;;
40807;SDS011;26523;52.504;13.498;2022-08-04T08:05:07;4.78;;;2.50;;
40807;SDS011;26523;52.504;13.498;2022-08-04T08:07:36;3.35;;;2.30;;
40807;SDS011;26523;52.504;13.498;2022-08-04T08:10:02;6.57;;;2.30;;
40807;SDS011;26523;52.504;13.498;2022-08-04T08:12:28;6.85;;;2.28;;
40807;SDS011;26523;52.504;13.498;2022-08-04T08:14:56;6.97;;;2.20;;
40807;SDS011;26523;52.504;13.498;2022-08-04T08:17:23;4.88;;;2.45;;
40807;SDS011;26523;52.504;13.498;2022-08-04T08:19:48;5.57;;;2.40;;
40807;SDS011;26523;52.504;13.498;2022-08-04T08:22:15;4.55;;;2.60;;
40807;SDS011;26523;52.504;13.498;2022-08-04T08:24:40;7.10;;;2.40;;
40807;SDS011;26523;52.504;13.498;2022-08-04T08:27:06;4.03;;;2.30;;
40807;SDS011;26523;52.504;13.498;2022-08-04T08:29:32;5.75;;;3.00;;
40807;SDS011;26523;52.504;13.498;2022-08-04T08:31:59;7.25;;;2.50;;
40807;SDS011;26523;52.504;13.498;2022-08-04T08:34:26;4.30;;;2.45;;
40807;SDS011;26523;52.504;13.498;2022-08-04T08:47:48;3.60;;;1.90;;
40807;SDS011;26523;52.504;13.498;2022-08-04T08:56:21;3.63;;;1.88;;
40807;SDS011;26523;52.504;13.498;2022-08-04T08:59:00;4.28;;;2.10;;
40807;SDS011;26523;52.504;13.498;2022-08-04T09:09:47;3.83;;;2.10;;
40807;SDS011;26523;52.504;13.498;2022-08-04T09:12:34;3.85;;;1.83;;
40807;SDS011;26523;52.504;13.498;2022-08-04T09:15:16;8.45;;;2.42;;
40807;SDS011;26523;52.504;13.498;2022-08-04T09:17:54;3.58;;;2.20;;
40807;SDS011;26523;52.504;13.498;2022-08-04T09:25:39;3.70;;;2.30;;
40807;SDS011;26523;52.504;13.498;2022-08-04T09:28:30;4.63;;;2.60;;
40807;SDS011;26523;52.504;13.498;2022-08-04T09:31:18;3.00;;;2.20;;
40807;SDS011;26523;52.504;13.498;2022-08-04T09:49:59;2.50;;;1.85;;
40807;SDS011;26523;52.504;13.498;2022-08-04T10:00:44;6.40;;;1.92;;
40807;SDS011;26523;52.504;13.498;2022-08-04T10:03:15;7.28;;;2.17;;
40807;SDS011;26523;52.504;13.498;2022-08-04T10:06:05;3.83;;;1.90;;
40807;SDS011;26523;52.504;13.498;2022-08-04T10:08:53;2.88;;;1.83;;
40807;SDS011;26523;52.504;13.498;2022-08-04T10:19:44;4.07;;;1.90;;
40807;SDS011;26523;52.504;13.498;2022-08-04T10:22:24;3.38;;;1.83;;
40807;SDS011;26523;52.504;13.498;2022-08-04T10:24:59;2.50;;;1.60;;
40807;SDS011;26523;52.504;13.498;2022-08-04T10:27:29;3.78;;;1.90;;
40807;SDS011;26523;52.504;13.498;2022-08-04T10:30:12;2.97;;;1.77;;
40807;SDS011;26523;52.504;13.498;2022-08-04T10:35:20;2.72;;;1.83;;
40807;SDS011;26523;52.504;13.498;2022-08-04T10:40:43;2.40;;;1.70;;
40807;SDS011;26523;52.504;13.498;2022-08-04T10:48:58;2.33;;;1.80;;
40807;SDS011;26523;52.504;13.498;2022-08-04T10:51:44;5.35;;;2.03;;
40807;SDS011;26523;52.504;13.498;2022-08-04T10:54:16;3.65;;;1.77;;
40807;SDS011;26523;52.504;13.498;2022-08-04T10:56:45;3.22;;;1.92;;
40807;SDS011;26523;52.504;13.498;2022-08-04T10:59:17;3.85;;;1.90;;
40807;SDS011;26523;52.504;13.498;2022-08-04T11:01:54;3.40;;;1.80;;
40807;SDS011;26523;52.504;13.498;2022-08-04T11:07:17;3.28;;;1.98;;
40807;SDS011;26523;52.504;13.498;2022-08-04T11:09:44;4.28;;;1.70;;
40807;SDS011;26523;52.504;13.498;2022-08-04T11:12:15;4.03;;;1.90;;
40807;SDS011;26523;52.504;13.498;2022-08-04T11:14:48;2.40;;;1.73;;
40807;SDS011;26523;52.504;13.498;2022-08-04T11:17:25;3.33;;;1.50;;
40807;SDS011;26523;52.504;13.498;2022-08-04T11:20:14;2.87;;;1.80;;
40807;SDS011;26523;52.504;13.498;2022-08-04T11:23:26;3.10;;;1.60;;
40807;SDS011;26523;52.504;13.498;2022-08-04T11:31:18;6.38;;;2.65;;
40807;SDS011;26523;52.504;13.498;2022-08-04T11:34:03;2.75;;;1.75;;
40807;SDS011;26523;52.504;13.498;2022-08-04T11:42:27;3.70;;;1.83;;
40807;SDS011;26523;52.504;13.498;2022-08-04T11:45:01;2.30;;;1.30;;
40807;SDS011;26523;52.504;13.498;2022-08-04T11:47:39;2.50;;;1.60;;
40807;SDS011;26523;52.504;13.498;2022-08-04T11:52:58;2.70;;;1.45;;
40807;SDS011;26523;52.504;13.498;2022-08-04T11:55:27;3.35;;;1.50;;
40807;SDS011;26523;52.504;13.498;2022-08-04T11:57:53;5.88;;;1.52;;
40807;SDS011;26523;52.504;13.498;2022-08-04T12:00:19;1.80;;;1.20;;
40807;SDS011;26523;52.504;13.498;2022-08-04T12:05:24;2.28;;;1.38;;
40807;SDS011;26523;52.504;13.498;2022-08-04T12:17:14;6.43;;;1.50;;
40807;SDS011;26523;52.504;13.498;2022-08-04T12:19:21;2.90;;;1.70;;
40807;SDS011;26523;52.504;13.498;2022-08-04T12:22:00;2.53;;;1.73;;
40807;SDS011;26523;52.504;13.498;2022-08-04T12:24:49;2.72;;;1.73;;
40807;SDS011;26523;52.504;13.498;2022-08-04T12:27:52;3.42;;;1.60;;
40807;SDS011;26523;52.504;13.498;2022-08-04T12:30:13;3.90;;;2.00;;
40807;SDS011;26523;52.504;13.498;2022-08-04T12:32:44;2.63;;;1.40;;
40807;SDS011;26523;52.504;13.498;2022-08-04T12:35:20;4.43;;;1.83;;
40807;SDS011;26523;52.504;13.498;2022-08-04T12:38:04;9.18;;;2.70;;
40807;SDS011;26523;52.504;13.498;2022-08-04T12:43:10;2.70;;;1.75;;
40807;SDS011;26523;52.504;13.498;2022-08-04T12:45:54;4.10;;;1.60;;
40807;SDS011;26523;52.504;13.498;2022-08-04T12:48:24;3.60;;;1.60;;
40807;SDS011;26523;52.504;13.498;2022-08-04T12:50:52;3.17;;;1.77;;
40807;SDS011;26523;52.504;13.498;2022-08-04T12:53:26;3.10;;;1.50;;
40807;SDS011;26523;52.504;13.498;2022-08-04T12:55:58;3.08;;;1.35;;
40807;SDS011;26523;52.504;13.498;2022-08-04T12:58:26;2.70;;;1.58;;
40807;SDS011;26523;52.504;13.498;2022-08-04T13:01:39;2.72;;;1.50;;
40807;SDS011;26523;52.504;13.498;2022-08-04T13:03:48;3.00;;;1.60;;
40807;SDS011;26523;52.504;13.498;2022-08-04T13:06:22;2.97;;;1.40;;
40807;SDS011;26523;52.504;13.498;2022-08-04T13:08:50;2.50;;;1.40;;
40807;SDS011;26523;52.504;13.498;2022-08-04T13:11:17;2.33;;;1.38;;
40807;SDS011;26523;52.504;13.498;2022-08-04T13:13:43;2.47;;;1.75;;
40807;SDS011;26523;52.504;13.498;2022-08-04T13:16:10;4.18;;;1.88;;
40807;SDS011;26523;52.504;13.498;2022-08-04T13:18:37;2.20;;;1.25;;
40807;SDS011;26523;52.504;13.498;2022-08-04T13:21:23;3.05;;;1.73;;
40807;SDS011;26523;52.504;13.498;2022-08-04T13:23:56;3.53;;;1.48;;
40807;SDS011;26523;52.504;13.498;2022-08-04T13:26:26;2.85;;;1.50;;
40807;SDS011;26523;52.504;13.498;2022-08-04T13:28:53;3.55;;;1.50;;
40807;SDS011;26523;52.504;13.498;2022-08-04T13:34:32;1.92;;;1.35;;
40807;SDS011;26523;52.504;13.498;2022-08-04T13:36:58;2.65;;;1.52;;
40807;SDS011;26523;52.504;13.498;2022-08-04T13:39:27;2.30;;;1.40;;
40807;SDS011;26523;52.504;13.498;2022-08-04T13:41:54;2.70;;;1.52;;
40807;SDS011;26523;52.504;13.498;2022-08-04T13:44:23;3.20;;;1.55;;
40807;SDS011;26523;52.504;13.498;2022-08-04T13:46:54;3.10;;;1.50;;
40807;SDS011;26523;52.504;13.498;2022-08-04T13:49:23;2.38;;;1.58;;
40807;SDS011;26523;52.504;13.498;2022-08-04T13:51:50;2.72;;;1.42;;
40807;SDS011;26523;52.504;13.498;2022-08-04T13:54:22;4.07;;;1.50;;
40807;SDS011;26523;52.504;13.498;2022-08-04T13:56:55;2.58;;;1.63;;
40807;SDS011;26523;52.504;13.498;2022-08-04T13:59:25;3.33;;;1.55;;
40807;SDS011;26523;52.504;13.498;2022-08-04T14:01:59;2.08;;;1.30;;
40807;SDS011;26523;52.504;13.498;2022-08-04T14:04:31;2.03;;;1.30;;
40807;SDS011;26523;52.504;13.498;2022-08-04T14:07:04;2.95;;;1.60;;
40807;SDS011;26523;52.504;13.498;2022-08-04T14:09:35;1.67;;;1.20;;
40807;SDS011;26523;52.504;13.498;2022-08-04T14:12:13;2.90;;;1.33;;
40807;SDS011;26523;52.504;13.498;2022-08-04T14:14:50;3.15;;;1.42;;
40807;SDS011;26523;52.504;13.498;2022-08-04T14:17:18;2.97;;;1.35;;
40807;SDS011;26523;52.504;13.498;2022-08-04T14:19:52;2.10;;;1.27;;
40807;SDS011;26523;52.504;13.498;2022-08-04T14:22:29;4.45;;;2.00;;
40807;SDS011;26523;52.504;13.498;2022-08-04T14:25:09;3.40;;;1.95;;
40807;SDS011;26523;52.504;13.498;2022-08-04T14:27:53;4.28;;;1.52;;
40807;SDS011;26523;52.504;13.498;2022-08-04T14:33:01;4.60;;;1.20;;
40807;SDS011;26523;52.504;13.498;2022-08-04T14:35:32;2.90;;;1.67;;
40807;SDS011;26523;52.504;13.498;2022-08-04T14:38:01;1.92;;;1.08;;
40807;SDS011;26523;52.504;13.498;2022-08-04T14:40:30;3.08;;;1.05;;
40807;SDS011;26523;52.504;13.498;2022-08-04T14:42:58;2.10;;;1.40;;
40807;SDS011;26523;52.504;13.498;2022-08-04T14:45:28;1.77;;;1.20;;
40807;SDS011;26523;52.504;13.498;2022-08-04T14:47:59;2.05;;;1.20;;
40807;SDS011;26523;52.504;13.498;2022-08-04T14:50:59;1.90;;;1.20;;
40807;SDS011;26523;52.504;13.498;2022-08-04T14:53:22;2.72;;;1.25;;
40807;SDS011;26523;52.504;13.498;2022-08-04T14:55:54;2.22;;;1.20;;
40807;SDS011;26523;52.504;13.498;2022-08-04T15:00:52;1.90;;;1.17;;
40807;SDS011;26523;52.504;13.498;2022-08-04T15:03:20;2.92;;;1.60;;
40807;SDS011;26523;52.504;13.498;2022-08-04T15:05:47;1.45;;;1.00;;
40807;SDS011;26523;52.504;13.498;2022-08-04T15:08:14;1.92;;;1.20;;
40807;SDS011;26523;52.504;13.498;2022-08-04T15:10:40;2.92;;;1.40;;
40807;SDS011;26523;52.504;13.498;2022-08-04T15:13:06;1.42;;;1.05;;
40807;SDS011;26523;52.504;13.498;2022-08-04T15:15:32;2.95;;;1.83;;
40807;SDS011;26523;52.504;13.498;2022-08-04T15:17:58;2.65;;;1.52;;
40807;SDS011;26523;52.504;13.498;2022-08-04T15:20:24;5.38;;;1.45;;
40807;SDS011;26523;52.504;13.498;2022-08-04T15:22:50;1.88;;;1.20;;
40807;SDS011;26523;52.504;13.498;2022-08-04T15:25:16;1.85;;;1.02;;
40807;SDS011;26523;52.504;13.498;2022-08-04T15:27:42;2.17;;;1.30;;
40807;SDS011;26523;52.504;13.498;2022-08-04T15:30:12;1.65;;;1.10;;
40807;SDS011;26523;52.504;13.498;2022-08-04T15:32:42;2.17;;;1.38;;
40807;SDS011;26523;52.504;13.498;2022-08-04T15:35:18;2.53;;;1.38;;
40807;SDS011;26523;52.504;13.498;2022-08-04T15:40:29;1.55;;;1.08;;
40807;SDS011;26523;52.504;13.498;2022-08-04T15:45:30;2.65;;;1.42;;
40807;SDS011;26523;52.504;13.498;2022-08-04T15:50:36;2.60;;;1.50;;
40807;SDS011;26523;52.504;13.498;2022-08-04T15:53:21;2.00;;;1.30;;
40807;SDS011;26523;52.504;13.498;2022-08-04T15:55:48;2.92;;;1.48;;
40807;SDS011;26523;52.504;13.498;2022-08-04T15:58:14;2.50;;;1.50;;
40807;SDS011;26523;52.504;13.498;2022-08-04T16:05:57;4.22;;;1.92;;
40807;SDS011;26523;52.504;13.498;2022-08-04T16:08:23;6.25;;;1.73;;
40807;SDS011;26523;52.504;13.498;2022-08-04T16:10:49;4.18;;;1.50;;
40807;SDS011;26523;52.504;13.498;2022-08-04T16:13:20;3.00;;;1.50;;
40807;SDS011;26523;52.504;13.498;2022-08-04T16:18:20;4.72;;;2.03;;
40807;SDS011;26523;52.504;13.498;2022-08-04T16:20:56;3.78;;;1.40;;
40807;SDS011;26523;52.504;13.498;2022-08-04T16:29:01;4.38;;;1.65;;
40807;SDS011;26523;52.504;13.498;2022-08-04T16:31:28;4.05;;;1.60;;
40807;SDS011;26523;52.504;13.498;2022-08-04T16:33:58;4.90;;;1.83;;
40807;SDS011;26523;52.504;13.498;2022-08-04T16:36:53;2.75;;;1.48;;
40807;SDS011;26523;52.504;13.498;2022-08-04T16:39:19;5.95;;;1.88;;
40807;SDS011;26523;52.504;13.498;2022-08-04T16:41:45;3.45;;;2.10;;
40807;SDS011;26523;52.504;13.498;2022-08-04T16:46:59;2.78;;;1.75;;
40807;SDS011;26523;52.504;13.498;2022-08-04T16:49:26;2.10;;;1.23;;
40807;SDS011;26523;52.504;13.498;2022-08-04T16:51:53;3.15;;;1.48;;
40807;SDS011;26523;52.504;13.498;2022-08-04T16:54:20;2.63;;;1.58;;
40807;SDS011;26523;52.504;13.498;2022-08-04T16:56:46;2.92;;;1.90;;
40807;SDS011;26523;52.504;13.498;2022-08-04T16:59:12;2.20;;;1.48;;
40807;SDS011;26523;52.504;13.498;2022-08-04T17:01:45;2.80;;;1.73;;
40807;SDS011;26523;52.504;13.498;2022-08-04T17:04:13;2.35;;;1.40;;
40807;SDS011;26523;52.504;13.498;2022-08-04T17:06:41;2.65;;;1.33;;
40807;SDS011;26523;52.504;13.498;2022-08-04T17:09:12;3.45;;;1.27;;
40807;SDS011;26523;52.504;13.498;2022-08-04T17:11:43;7.05;;;1.85;;
40807;SDS011;26523;52.504;13.498;2022-08-04T17:14:09;6.78;;;2.42;;
40807;SDS011;26523;52.504;13.498;2022-08-04T17:16:40;7.50;;;2.35;;
40807;SDS011;26523;52.504;13.498;2022-08-04T17:19:10;5.78;;;1.90;;
40807;SDS011;26523;52.504;13.498;2022-08-04T17:21:36;5.32;;;1.50;;
40807;SDS011;26523;52.504;13.498;2022-08-04T17:24:04;4.28;;;1.88;;
40807;SDS011;26523;52.504;13.498;2022-08-04T17:26:31;2.67;;;1.50;;
40807;SDS011;26523;52.504;13.498;2022-08-04T17:28:58;3.72;;;1.83;;
40807;SDS011;26523;52.504;13.498;2022-08-04T17:31:26;5.65;;;1.80;;
40807;SDS011;26523;52.504;13.498;2022-08-04T17:33:53;4.18;;;2.10;;
40807;SDS011;26523;52.504;13.498;2022-08-04T17:36:27;8.23;;;2.88;;
40807;SDS011;26523;52.504;13.498;2022-08-04T17:38:56;8.88;;;5.13;;
40807;SDS011;26523;52.504;13.498;2022-08-04T17:41:25;9.93;;;4.88;;
40807;SDS011;26523;52.504;13.498;2022-08-04T17:43:58;6.55;;;3.58;;
40807;SDS011;26523;52.504;13.498;2022-08-04T17:54:12;4.97;;;2.90;;
40807;SDS011;26523;52.504;13.498;2022-08-04T17:56:40;6.22;;;2.90;;
40807;SDS011;26523;52.504;13.498;2022-08-04T18:07:00;5.40;;;2.60;;
40807;SDS011;26523;52.504;13.498;2022-08-04T18:14:40;5.93;;;2.78;;
40807;SDS011;26523;52.504;13.498;2022-08-04T18:17:11;5.90;;;2.50;;
40807;SDS011;26523;52.504;13.498;2022-08-04T18:19:44;5.70;;;2.83;;
40807;SDS011;26523;52.504;13.498;2022-08-04T18:22:17;6.00;;;3.72;;
40807;SDS011;26523;52.504;13.498;2022-08-04T18:24:43;16.75;;;8.98;;
40807;SDS011;26523;52.504;13.498;2022-08-04T18:27:08;25.85;;;15.68;;
40807;SDS011;26523;52.504;13.498;2022-08-04T18:29:34;12.80;;;7.03;;
40807;SDS011;26523;52.504;13.498;2022-08-04T18:32:00;7.50;;;3.97;;
40807;SDS011;26523;52.504;13.498;2022-08-04T18:34:26;10.45;;;3.28;;
40807;SDS011;26523;52.504;13.498;2022-08-04T18:36:51;7.00;;;3.65;;
40807;SDS011;26523;52.504;13.498;2022-08-04T18:39:17;6.35;;;3.05;;
40807;SDS011;26523;52.504;13.498;2022-08-04T18:41:43;6.47;;;2.88;;
40807;SDS011;26523;52.504;13.498;2022-08-04T18:44:10;5.63;;;2.80;;
40807;SDS011;26523;52.504;13.498;2022-08-04T18:46:36;6.47;;;3.13;;
40807;SDS011;26523;52.504;13.498;2022-08-04T18:49:01;5.03;;;2.75;;
40807;SDS011;26523;52.504;13.498;2022-08-04T18:51:27;5.50;;;2.60;;
40807;SDS011;26523;52.504;13.498;2022-08-04T18:53:53;5.93;;;2.67;;
40807;SDS011;26523;52.504;13.498;2022-08-04T18:56:18;5.65;;;2.70;;
40807;SDS011;26523;52.504;13.498;2022-08-04T18:58:44;6.10;;;2.92;;
40807;SDS011;26523;52.504;13.498;2022-08-04T19:01:09;4.35;;;2.20;;
40807;SDS011;26523;52.504;13.498;2022-08-04T19:03:38;7.43;;;2.60;;
40807;SDS011;26523;52.504;13.498;2022-08-04T19:06:04;11.50;;;5.55;;
40807;SDS011;26523;52.504;13.498;2022-08-04T19:08:30;12.23;;;5.28;;
40807;SDS011;26523;52.504;13.498;2022-08-04T19:10:56;9.05;;;4.72;;
40807;SDS011;26523;52.504;13.498;2022-08-04T19:13:24;7.97;;;4.28;;
40807;SDS011;26523;52.504;13.498;2022-08-04T19:15:52;7.95;;;3.90;;
40807;SDS011;26523;52.504;13.498;2022-08-04T19:18:18;8.15;;;3.85;;
40807;SDS011;26523;52.504;13.498;2022-08-04T19:20:43;8.30;;;3.70;;
40807;SDS011;26523;52.504;13.498;2022-08-04T19:23:10;5.88;;;3.35;;
40807;SDS011;26523;52.504;13.498;2022-08-04T19:25:36;7.20;;;3.38;;
40807;SDS011;26523;52.504;13.498;2022-08-04T19:28:03;6.55;;;3.40;;
40807;SDS011;26523;52.504;13.498;2022-08-04T19:30:29;5.70;;;3.15;;
40807;SDS011;26523;52.504;13.498;2022-08-04T19:32:55;7.63;;;3.47;;
40807;SDS011;26523;52.504;13.498;2022-08-04T19:35:21;7.55;;;3.33;;
40807;SDS011;26523;52.504;13.498;2022-08-04T19:37:46;7.47;;;3.35;;
40807;SDS011;26523;52.504;13.498;2022-08-04T19:40:12;6.68;;;3.45;;
40807;SDS011;26523;52.504;13.498;2022-08-04T19:42:38;7.68;;;3.75;;